Adams, Oregon
Current Conditions -  °F | °C
As of 9:53 AM on Friday 31 Oct 2014 (Local Time) from KPDT Reporting Station
Broken Clouds Broken Clouds  
Wind Chill: 52°   Ceiling: 10000
Heat Index: 52°   Visibility: 7mi
Dew Point: 47°   Wind: 0mph
Humidity: 83%   Direction: NA
Pressure: 29.73"   Gusts: NA
Location:  45.77°N, 118.56°W
Report Text: KPDT 311653Z 00000KT 7SM BKN100 BKN120 11/08 A2973 RMK AO2 RAE1555 SLP061 P0000 T01110083 $
Loading
Personal Weather Stations






























Interactive Weather Map
Tropical Storm Tracking
New forecast layout! Learn more

10-Day Weather Forecast

Advertisements
Track Severe Weather on mobile